Impacts METAR Board
IDs:

KGPT - Gulfport-Biloxi Intl, MS, US

Updated at: 1700 UTC 01 Mar 2021
Potential Impact None Slight Moderate High
Time 01/05Z 01/06Z 01/07Z 01/08Z 01/09Z 01/10Z 01/11Z 01/12Z 01/13Z 01/14Z 01/15Z 01/16Z 01/17Z
Temp70 70 69 69 69 69 69 68 69 70 73 78 76
Dewpt69 69 68 68 68 68 68 67 68 69 70 70 69
Altim29.99 29.99 29.99 29.98 29.98 29.98 29.99 30.00 30.02 30.03 30.02 30.01 30.01
VIS2 0.5 0.25 0.25 0.25 0.25 0.25 0.75 3 6 10 10 10
CIG2 2 2 2 2 2 3 3 2 2 -- -- 19
CoverOVCOVXOVXOVXOVXOVXOVXOVXOVCOVCSCTFEWBKN
FltCatLIFRLIFRLIFRLIFRLIFRLIFRLIFRLIFRLIFRLIFRVFRVFRMVFR
WXBRFGFGFGFGFGFGBRBRBR------
WDir1701701600000120000270150
WSpd4 4 3 0 0 0 0 3 0 0 0 8 5
WGst-- -- -- -- -- -- -- -- -- -- -- -- --
Raw hourly METARs
KGPT 010453Z AUTO 17004KT 2SM BR OVC002 21/21 A2999 RMK AO2 SLP155 T02110206
KGPT 010553Z AUTO 17004KT 1/2SM FG VV002 21/21 A2999 RMK AO2 SLP153 T02110206 10217 20206 402500189 56002 RVRNO
KGPT 010653Z AUTO 16003KT 1/4SM FG VV002 21/20 A2999 RMK AO2 SLP154 T02060200 RVRNO
KGPT 010753Z AUTO 00000KT 1/4SM FG VV002 21/20 A2998 RMK AO2 SLP151 T02060200 RVRNO
KGPT 010853Z AUTO 00000KT 1/4SM FG VV002 21/20 A2998 RMK AO2 SLP150 T02060200 58003 RVRNO
KGPT 010953Z AUTO 00000KT 1/4SM FG VV002 21/20 A2998 RMK AO2 SLP152 T02060200 RVRNO
KGPT 011053Z AUTO 00000KT 1/4SM FG VV003 21/20 A2999 RMK AO2 SLP155 T02060200 RVRNO
KGPT 011153Z 12003KT 3/4SM BR VV003 20/19 A3000 RMK AO2 SLP158 T02000194 10211 20200 53009 RVRNO
KGPT 011258Z 00000KT 3SM BR OVC002 21/20 A3002 RMK AO2 T02060200
KGPT 011401Z 00000KT 6SM BR BKN002 BKN010 OVC100 21/21 A3003 RMK AO2 T02110206
KGPT 011453Z 00000KT 10SM SCT003 23/21 A3002 RMK AO2 SLP166 T02280211 51008
KGPT 011553Z 27008KT 10SM FEW018 26/21 A3001 RMK AO2 SLP163 T02560211 $
KGPT 011653Z 15005KT 10SM BKN019 BKN023 24/21 A3001 RMK AO2 SLP161 T02440206



Page loaded:  17:02 UTC  |   09:02 AM Pacific  |   10:02 AM Mountain  |   11:02 AM Central  |   12:02 PM Eastern

 

ADVISORIES

FORECASTS

FORECASTS

OBSERVATIONS

USER TOOLS

ABOUT US